sensor_id;sensor_type;location;lat;lon;timestamp;P1;durP1;ratioP1;P2;durP2;ratioP2
8982;SDS011;20979;59.850;10.660;2023-06-26T00:01:57;4.30;;;3.65;;
8982;SDS011;20979;59.850;10.660;2023-06-26T00:04:28;4.30;;;3.90;;
8982;SDS011;20979;59.850;10.660;2023-06-26T00:07:01;3.95;;;3.65;;
8982;SDS011;20979;59.850;10.660;2023-06-26T00:09:29;4.03;;;3.65;;
8982;SDS011;20979;59.850;10.660;2023-06-26T00:11:57;4.13;;;3.80;;
8982;SDS011;20979;59.850;10.660;2023-06-26T00:14:31;4.03;;;3.63;;
8982;SDS011;20979;59.850;10.660;2023-06-26T00:16:59;4.10;;;3.80;;
8982;SDS011;20979;59.850;10.660;2023-06-26T00:19:26;3.97;;;3.67;;
8982;SDS011;20979;59.850;10.660;2023-06-26T00:21:54;4.05;;;3.75;;
8982;SDS011;20979;59.850;10.660;2023-06-26T00:24:23;4.20;;;3.80;;
8982;SDS011;20979;59.850;10.660;2023-06-26T00:26:54;4.00;;;3.70;;
8982;SDS011;20979;59.850;10.660;2023-06-26T00:32:40;4.47;;;3.92;;
8982;SDS011;20979;59.850;10.660;2023-06-26T00:35:09;4.97;;;4.20;;
8982;SDS011;20979;59.850;10.660;2023-06-26T00:37:36;4.60;;;4.00;;
8982;SDS011;20979;59.850;10.660;2023-06-26T00:40:06;5.40;;;3.73;;
8982;SDS011;20979;59.850;10.660;2023-06-26T00:42:34;4.53;;;3.97;;
8982;SDS011;20979;59.850;10.660;2023-06-26T01:03:22;4.70;;;4.20;;
8982;SDS011;20979;59.850;10.660;2023-06-26T01:09:01;5.30;;;4.40;;
8982;SDS011;20979;59.850;10.660;2023-06-26T01:11:43;4.50;;;4.10;;
8982;SDS011;20979;59.850;10.660;2023-06-26T01:20:36;4.33;;;4.00;;
8982;SDS011;20979;59.850;10.660;2023-06-26T01:23:12;4.57;;;4.17;;
8982;SDS011;20979;59.850;10.660;2023-06-26T01:25:50;4.47;;;4.07;;
8982;SDS011;20979;59.850;10.660;2023-06-26T01:28:22;4.33;;;4.00;;
8982;SDS011;20979;59.850;10.660;2023-06-26T01:31:13;4.63;;;4.00;;
8982;SDS011;20979;59.850;10.660;2023-06-26T01:33:41;4.33;;;3.97;;
8982;SDS011;20979;59.850;10.660;2023-06-26T01:36:22;4.40;;;4.00;;
8982;SDS011;20979;59.850;10.660;2023-06-26T01:41:50;4.23;;;3.73;;
8982;SDS011;20979;59.850;10.660;2023-06-26T01:44:28;4.30;;;4.00;;
8982;SDS011;20979;59.850;10.660;2023-06-26T01:47:07;4.10;;;3.80;;
8982;SDS011;20979;59.850;10.660;2023-06-26T01:49:42;4.27;;;3.97;;
8982;SDS011;20979;59.850;10.660;2023-06-26T01:52:25;4.23;;;3.80;;
8982;SDS011;20979;59.850;10.660;2023-06-26T01:55:05;4.10;;;3.80;;
8982;SDS011;20979;59.850;10.660;2023-06-26T01:57:36;4.57;;;4.17;;
8982;SDS011;20979;59.850;10.660;2023-06-26T02:03:22;4.33;;;4.03;;
8982;SDS011;20979;59.850;10.660;2023-06-26T02:06:04;4.60;;;4.10;;
8982;SDS011;20979;59.850;10.660;2023-06-26T02:08:31;4.17;;;3.87;;
8982;SDS011;20979;59.850;10.660;2023-06-26T02:11:13;4.67;;;4.27;;
8982;SDS011;20979;59.850;10.660;2023-06-26T02:13:52;4.80;;;4.40;;
8982;SDS011;20979;59.850;10.660;2023-06-26T02:16:20;4.20;;;3.80;;
8982;SDS011;20979;59.850;10.660;2023-06-26T02:39:59;4.07;;;3.70;;
8982;SDS011;20979;59.850;10.660;2023-06-26T02:42:26;3.80;;;3.50;;
8982;SDS011;20979;59.850;10.660;2023-06-26T02:44:54;4.00;;;3.70;;
8982;SDS011;20979;59.850;10.660;2023-06-26T02:53:37;3.93;;;3.60;;
8982;SDS011;20979;59.850;10.660;2023-06-26T02:56:16;3.40;;;3.20;;
8982;SDS011;20979;59.850;10.660;2023-06-26T03:14:35;2.87;;;2.67;;
8982;SDS011;20979;59.850;10.660;2023-06-26T03:17:02;2.90;;;2.60;;
8982;SDS011;20979;59.850;10.660;2023-06-26T03:19:43;2.90;;;2.70;;
8982;SDS011;20979;59.850;10.660;2023-06-26T03:22:11;2.80;;;2.60;;
8982;SDS011;20979;59.850;10.660;2023-06-26T03:24:39;3.00;;;2.80;;
8982;SDS011;20979;59.850;10.660;2023-06-26T03:27:07;2.75;;;2.55;;
8982;SDS011;20979;59.850;10.660;2023-06-26T03:32:51;2.87;;;2.67;;
8982;SDS011;20979;59.850;10.660;2023-06-26T03:35:19;3.10;;;2.80;;
8982;SDS011;20979;59.850;10.660;2023-06-26T03:37:48;2.78;;;2.58;;
8982;SDS011;20979;59.850;10.660;2023-06-26T03:40:40;3.07;;;2.50;;
8982;SDS011;20979;59.850;10.660;2023-06-26T03:43:10;3.20;;;2.40;;
8982;SDS011;20979;59.850;10.660;2023-06-26T03:45:37;2.53;;;2.33;;
8982;SDS011;20979;59.850;10.660;2023-06-26T03:53:56;2.63;;;2.43;;
8982;SDS011;20979;59.850;10.660;2023-06-26T03:59:25;2.70;;;2.50;;
8982;SDS011;20979;59.850;10.660;2023-06-26T04:01:53;2.40;;;2.27;;
8982;SDS011;20979;59.850;10.660;2023-06-26T04:05:14;2.20;;;2.10;;
8982;SDS011;20979;59.850;10.660;2023-06-26T04:07:42;2.40;;;2.20;;
8982;SDS011;20979;59.850;10.660;2023-06-26T04:10:11;2.40;;;2.23;;
8982;SDS011;20979;59.850;10.660;2023-06-26T04:12:52;2.20;;;2.00;;
8982;SDS011;20979;59.850;10.660;2023-06-26T04:15:19;2.20;;;2.10;;
8982;SDS011;20979;59.850;10.660;2023-06-26T04:17:49;2.35;;;2.15;;
8982;SDS011;20979;59.850;10.660;2023-06-26T04:20:37;2.30;;;2.10;;
8982;SDS011;20979;59.850;10.660;2023-06-26T04:23:05;2.15;;;2.05;;
8982;SDS011;20979;59.850;10.660;2023-06-26T04:25:34;2.47;;;2.22;;
8982;SDS011;20979;59.850;10.660;2023-06-26T04:34:09;2.40;;;2.20;;
8982;SDS011;20979;59.850;10.660;2023-06-26T04:36:37;2.45;;;2.25;;
8982;SDS011;20979;59.850;10.660;2023-06-26T04:39:05;2.30;;;1.98;;
8982;SDS011;20979;59.850;10.660;2023-06-26T04:41:38;2.35;;;2.15;;
8982;SDS011;20979;59.850;10.660;2023-06-26T04:44:06;2.20;;;2.10;;
8982;SDS011;20979;59.850;10.660;2023-06-26T04:52:38;2.58;;;2.38;;
8982;SDS011;20979;59.850;10.660;2023-06-26T04:55:18;2.38;;;2.17;;
8982;SDS011;20979;59.850;10.660;2023-06-26T04:57:48;3.00;;;2.30;;
8982;SDS011;20979;59.850;10.660;2023-06-26T05:00:16;2.20;;;2.10;;
8982;SDS011;20979;59.850;10.660;2023-06-26T05:02:44;2.20;;;2.10;;
8982;SDS011;20979;59.850;10.660;2023-06-26T05:05:11;2.55;;;2.35;;
8982;SDS011;20979;59.850;10.660;2023-06-26T05:07:40;2.58;;;2.38;;
8982;SDS011;20979;59.850;10.660;2023-06-26T05:10:18;2.05;;;1.95;;
8982;SDS011;20979;59.850;10.660;2023-06-26T05:13:14;2.53;;;2.30;;
8982;SDS011;20979;59.850;10.660;2023-06-26T05:15:46;3.08;;;2.10;;
8982;SDS011;20979;59.850;10.660;2023-06-26T05:18:14;2.13;;;2.00;;
8982;SDS011;20979;59.850;10.660;2023-06-26T05:20:41;2.25;;;2.13;;
8982;SDS011;20979;59.850;10.660;2023-06-26T05:23:10;2.20;;;2.10;;
8982;SDS011;20979;59.850;10.660;2023-06-26T05:25:39;2.40;;;2.20;;
8982;SDS011;20979;59.850;10.660;2023-06-26T05:28:10;2.10;;;2.00;;
8982;SDS011;20979;59.850;10.660;2023-06-26T05:30:39;2.05;;;1.92;;
8982;SDS011;20979;59.850;10.660;2023-06-26T05:33:07;3.05;;;2.00;;
8982;SDS011;20979;59.850;10.660;2023-06-26T05:36:55;2.20;;;2.10;;
8982;SDS011;20979;59.850;10.660;2023-06-26T05:38:41;2.20;;;2.03;;
8982;SDS011;20979;59.850;10.660;2023-06-26T05:41:09;2.00;;;1.90;;
8982;SDS011;20979;59.850;10.660;2023-06-26T05:43:37;2.15;;;2.00;;
8982;SDS011;20979;59.850;10.660;2023-06-26T05:46:04;2.05;;;1.95;;
8982;SDS011;20979;59.850;10.660;2023-06-26T05:48:46;2.10;;;2.00;;
8982;SDS011;20979;59.850;10.660;2023-06-26T05:51:13;2.03;;;1.92;;
8982;SDS011;20979;59.850;10.660;2023-06-26T05:53:43;2.20;;;2.10;;
8982;SDS011;20979;59.850;10.660;2023-06-26T05:56:10;1.90;;;1.80;;
8982;SDS011;20979;59.850;10.660;2023-06-26T05:58:38;2.00;;;1.90;;
8982;SDS011;20979;59.850;10.660;2023-06-26T06:01:06;2.28;;;2.17;;
8982;SDS011;20979;59.850;10.660;2023-06-26T06:03:33;2.20;;;2.10;;
8982;SDS011;20979;59.850;10.660;2023-06-26T06:06:01;1.88;;;1.77;;
8982;SDS011;20979;59.850;10.660;2023-06-26T06:08:29;2.30;;;2.17;;
8982;SDS011;20979;59.850;10.660;2023-06-26T06:10:59;1.85;;;1.75;;
8982;SDS011;20979;59.850;10.660;2023-06-26T06:13:27;2.17;;;2.08;;
8982;SDS011;20979;59.850;10.660;2023-06-26T06:15:54;2.00;;;1.90;;
8982;SDS011;20979;59.850;10.660;2023-06-26T06:18:22;2.38;;;2.28;;
8982;SDS011;20979;59.850;10.660;2023-06-26T06:20:50;2.13;;;2.03;;
8982;SDS011;20979;59.850;10.660;2023-06-26T06:23:20;2.28;;;2.17;;
8982;SDS011;20979;59.850;10.660;2023-06-26T06:25:48;1.90;;;1.80;;
8982;SDS011;20979;59.850;10.660;2023-06-26T06:28:17;2.00;;;1.90;;
8982;SDS011;20979;59.850;10.660;2023-06-26T06:30:44;1.92;;;1.83;;
8982;SDS011;20979;59.850;10.660;2023-06-26T06:33:12;1.80;;;1.70;;
8982;SDS011;20979;59.850;10.660;2023-06-26T06:35:39;1.75;;;1.65;;
8982;SDS011;20979;59.850;10.660;2023-06-26T06:38:07;2.47;;;2.28;;
8982;SDS011;20979;59.850;10.660;2023-06-26T06:40:34;2.00;;;1.90;;
8982;SDS011;20979;59.850;10.660;2023-06-26T06:43:05;1.90;;;1.80;;
8982;SDS011;20979;59.850;10.660;2023-06-26T06:45:34;1.98;;;1.88;;
8982;SDS011;20979;59.850;10.660;2023-06-26T06:48:03;2.00;;;1.90;;
8982;SDS011;20979;59.850;10.660;2023-06-26T06:50:30;2.30;;;1.90;;
8982;SDS011;20979;59.850;10.660;2023-06-26T06:52:57;1.70;;;1.60;;
8982;SDS011;20979;59.850;10.660;2023-06-26T06:55:25;2.50;;;1.50;;
8982;SDS011;20979;59.850;10.660;2023-06-26T06:57:52;1.73;;;1.63;;
8982;SDS011;20979;59.850;10.660;2023-06-26T07:00:23;1.95;;;1.73;;
8982;SDS011;20979;59.850;10.660;2023-06-26T07:02:53;1.80;;;1.70;;
8982;SDS011;20979;59.850;10.660;2023-06-26T07:05:21;1.80;;;1.70;;
8982;SDS011;20979;59.850;10.660;2023-06-26T07:07:49;1.77;;;1.67;;
8982;SDS011;20979;59.850;10.660;2023-06-26T07:10:19;1.88;;;1.77;;
8982;SDS011;20979;59.850;10.660;2023-06-26T07:12:46;1.90;;;1.80;;
8982;SDS011;20979;59.850;10.660;2023-06-26T07:15:14;2.30;;;2.10;;
8982;SDS011;20979;59.850;10.660;2023-06-26T07:17:41;2.20;;;2.00;;
8982;SDS011;20979;59.850;10.660;2023-06-26T07:20:11;2.10;;;2.00;;
8982;SDS011;20979;59.850;10.660;2023-06-26T07:22:40;2.13;;;1.92;;
8982;SDS011;20979;59.850;10.660;2023-06-26T07:25:09;1.75;;;1.65;;
8982;SDS011;20979;59.850;10.660;2023-06-26T07:27:37;1.75;;;1.65;;
8982;SDS011;20979;59.850;10.660;2023-06-26T07:30:06;2.35;;;1.80;;
8982;SDS011;20979;59.850;10.660;2023-06-26T07:32:34;2.00;;;1.90;;
8982;SDS011;20979;59.850;10.660;2023-06-26T07:35:02;2.22;;;2.03;;
8982;SDS011;20979;59.850;10.660;2023-06-26T07:37:33;2.00;;;1.90;;
8982;SDS011;20979;59.850;10.660;2023-06-26T07:40:01;2.20;;;2.03;;
8982;SDS011;20979;59.850;10.660;2023-06-26T07:42:29;1.98;;;1.88;;
8982;SDS011;20979;59.850;10.660;2023-06-26T07:44:56;2.10;;;2.00;;
8982;SDS011;20979;59.850;10.660;2023-06-26T07:47:23;1.90;;;1.80;;
8982;SDS011;20979;59.850;10.660;2023-06-26T07:49:51;2.10;;;2.00;;
8982;SDS011;20979;59.850;10.660;2023-06-26T07:52:18;2.17;;;2.08;;
8982;SDS011;20979;59.850;10.660;2023-06-26T07:54:48;3.20;;;2.20;;
8982;SDS011;20979;59.850;10.660;2023-06-26T07:57:29;2.00;;;1.90;;
8982;SDS011;20979;59.850;10.660;2023-06-26T07:59:57;2.22;;;1.80;;
8982;SDS011;20979;59.850;10.660;2023-06-26T08:02:24;2.30;;;2.10;;
8982;SDS011;20979;59.850;10.660;2023-06-26T08:04:52;1.83;;;1.73;;
8982;SDS011;20979;59.850;10.660;2023-06-26T08:07:19;2.03;;;1.75;;
8982;SDS011;20979;59.850;10.660;2023-06-26T08:09:48;2.00;;;1.90;;
8982;SDS011;20979;59.850;10.660;2023-06-26T08:12:16;2.05;;;1.95;;
8982;SDS011;20979;59.850;10.660;2023-06-26T08:14:46;1.92;;;1.83;;
8982;SDS011;20979;59.850;10.660;2023-06-26T08:17:20;1.90;;;1.80;;
8982;SDS011;20979;59.850;10.660;2023-06-26T08:19:50;2.03;;;1.83;;
8982;SDS011;20979;59.850;10.660;2023-06-26T08:22:17;2.72;;;1.85;;
8982;SDS011;20979;59.850;10.660;2023-06-26T08:24:45;2.08;;;1.88;;
8982;SDS011;20979;59.850;10.660;2023-06-26T08:27:14;2.10;;;2.00;;
8982;SDS011;20979;59.850;10.660;2023-06-26T08:29:42;1.95;;;1.85;;
8982;SDS011;20979;59.850;10.660;2023-06-26T08:32:12;2.35;;;2.15;;
8982;SDS011;20979;59.850;10.660;2023-06-26T08:34:42;2.00;;;1.80;;
8982;SDS011;20979;59.850;10.660;2023-06-26T08:37:09;1.80;;;1.70;;
8982;SDS011;20979;59.850;10.660;2023-06-26T08:39:37;2.15;;;1.95;;
8982;SDS011;20979;59.850;10.660;2023-06-26T08:42:05;2.00;;;1.80;;
8982;SDS011;20979;59.850;10.660;2023-06-26T08:44:34;1.80;;;1.70;;
8982;SDS011;20979;59.850;10.660;2023-06-26T08:47:01;2.22;;;2.13;;
8982;SDS011;20979;59.850;10.660;2023-06-26T08:52:37;1.95;;;1.85;;
8982;SDS011;20979;59.850;10.660;2023-06-26T08:55:08;2.15;;;1.90;;
8982;SDS011;20979;59.850;10.660;2023-06-26T08:57:36;1.90;;;1.80;;
8982;SDS011;20979;59.850;10.660;2023-06-26T09:00:06;1.83;;;1.73;;
8982;SDS011;20979;59.850;10.660;2023-06-26T09:02:34;1.88;;;1.77;;
8982;SDS011;20979;59.850;10.660;2023-06-26T09:05:02;2.00;;;1.90;;
8982;SDS011;20979;59.850;10.660;2023-06-26T09:07:30;1.92;;;1.83;;
8982;SDS011;20979;59.850;10.660;2023-06-26T09:09:58;2.00;;;1.90;;
8982;SDS011;20979;59.850;10.660;2023-06-26T09:12:39;2.00;;;1.90;;
8982;SDS011;20979;59.850;10.660;2023-06-26T09:15:20;1.95;;;1.85;;
8982;SDS011;20979;59.850;10.660;2023-06-26T09:17:47;1.90;;;1.80;;
8982;SDS011;20979;59.850;10.660;2023-06-26T09:20:15;2.00;;;1.90;;
8982;SDS011;20979;59.850;10.660;2023-06-26T09:22:46;2.00;;;1.90;;
8982;SDS011;20979;59.850;10.660;2023-06-26T09:25:15;1.95;;;1.85;;
8982;SDS011;20979;59.850;10.660;2023-06-26T09:27:44;2.50;;;2.30;;
8982;SDS011;20979;59.850;10.660;2023-06-26T09:30:12;2.15;;;1.75;;
8982;SDS011;20979;59.850;10.660;2023-06-26T09:32:45;1.80;;;1.70;;
8982;SDS011;20979;59.850;10.660;2023-06-26T09:35:13;2.10;;;2.00;;
8982;SDS011;20979;59.850;10.660;2023-06-26T09:40:26;2.28;;;2.08;;
8982;SDS011;20979;59.850;10.660;2023-06-26T09:43:07;2.22;;;2.13;;
8982;SDS011;20979;59.850;10.660;2023-06-26T09:45:35;2.00;;;1.90;;
8982;SDS011;20979;59.850;10.660;2023-06-26T09:54:07;1.92;;;1.83;;
8982;SDS011;20979;59.850;10.660;2023-06-26T09:56:35;1.73;;;1.63;;
8982;SDS011;20979;59.850;10.660;2023-06-26T09:59:10;1.83;;;1.73;;
8982;SDS011;20979;59.850;10.660;2023-06-26T10:01:41;1.80;;;1.70;;
8982;SDS011;20979;59.850;10.660;2023-06-26T10:04:08;2.75;;;1.83;;
8982;SDS011;20979;59.850;10.660;2023-06-26T10:06:36;2.10;;;2.00;;
8982;SDS011;20979;59.850;10.660;2023-06-26T10:09:04;2.00;;;1.90;;
8982;SDS011;20979;59.850;10.660;2023-06-26T10:11:35;2.20;;;2.00;;
8982;SDS011;20979;59.850;10.660;2023-06-26T10:14:04;2.00;;;1.90;;
8982;SDS011;20979;59.850;10.660;2023-06-26T10:16:31;2.25;;;2.05;;
8982;SDS011;20979;59.850;10.660;2023-06-26T10:19:06;2.30;;;2.10;;
8982;SDS011;20979;59.850;10.660;2023-06-26T10:21:49;2.00;;;1.90;;
8982;SDS011;20979;59.850;10.660;2023-06-26T10:24:17;2.10;;;2.00;;
8982;SDS011;20979;59.850;10.660;2023-06-26T10:26:46;2.10;;;2.00;;
8982;SDS011;20979;59.850;10.660;2023-06-26T10:29:16;2.10;;;2.00;;
8982;SDS011;20979;59.850;10.660;2023-06-26T10:31:45;2.95;;;1.98;;
8982;SDS011;20979;59.850;10.660;2023-06-26T10:34:13;2.15;;;2.05;;
8982;SDS011;20979;59.850;10.660;2023-06-26T10:36:41;2.05;;;1.95;;
8982;SDS011;20979;59.850;10.660;2023-06-26T10:39:09;2.28;;;2.10;;
8982;SDS011;20979;59.850;10.660;2023-06-26T10:41:37;2.25;;;2.05;;
8982;SDS011;20979;59.850;10.660;2023-06-26T10:44:10;2.10;;;2.00;;
8982;SDS011;20979;59.850;10.660;2023-06-26T10:49:24;1.90;;;1.80;;
8982;SDS011;20979;59.850;10.660;2023-06-26T10:51:52;2.47;;;2.03;;
8982;SDS011;20979;59.850;10.660;2023-06-26T10:54:22;2.05;;;1.95;;
8982;SDS011;20979;59.850;10.660;2023-06-26T10:56:50;3.38;;;1.90;;
8982;SDS011;20979;59.850;10.660;2023-06-26T10:59:19;2.00;;;1.90;;
8982;SDS011;20979;59.850;10.660;2023-06-26T11:01:53;3.03;;;2.20;;
8982;SDS011;20979;59.850;10.660;2023-06-26T11:04:35;2.33;;;2.08;;
8982;SDS011;20979;59.850;10.660;2023-06-26T11:07:17;2.05;;;1.95;;
8982;SDS011;20979;59.850;10.660;2023-06-26T11:09:55;2.40;;;2.30;;
8982;SDS011;20979;59.850;10.660;2023-06-26T11:15:11;2.40;;;2.20;;
8982;SDS011;20979;59.850;10.660;2023-06-26T11:17:39;2.17;;;2.08;;
8982;SDS011;20979;59.850;10.660;2023-06-26T11:20:27;2.30;;;2.20;;
8982;SDS011;20979;59.850;10.660;2023-06-26T11:22:55;2.20;;;2.10;;
8982;SDS011;20979;59.850;10.660;2023-06-26T11:25:24;4.03;;;2.20;;
8982;SDS011;20979;59.850;10.660;2023-06-26T11:27:52;2.17;;;2.08;;
8982;SDS011;20979;59.850;10.660;2023-06-26T11:30:25;2.50;;;2.30;;
8982;SDS011;20979;59.850;10.660;2023-06-26T11:33:07;2.60;;;2.40;;
8982;SDS011;20979;59.850;10.660;2023-06-26T11:35:34;3.65;;;2.63;;
8982;SDS011;20979;59.850;10.660;2023-06-26T11:38:03;3.03;;;2.40;;
8982;SDS011;20979;59.850;10.660;2023-06-26T11:40:30;2.55;;;2.35;;
8982;SDS011;20979;59.850;10.660;2023-06-26T11:42:58;2.78;;;2.58;;
8982;SDS011;20979;59.850;10.660;2023-06-26T11:45:29;2.35;;;2.25;;
8982;SDS011;20979;59.850;10.660;2023-06-26T11:47:56;2.40;;;2.20;;
8982;SDS011;20979;59.850;10.660;2023-06-26T11:50:36;3.05;;;2.40;;
8982;SDS011;20979;59.850;10.660;2023-06-26T11:53:04;2.70;;;2.53;;
8982;SDS011;20979;59.850;10.660;2023-06-26T11:55:40;2.60;;;2.40;;
8982;SDS011;20979;59.850;10.660;2023-06-26T11:58:08;2.80;;;2.58;;
8982;SDS011;20979;59.850;10.660;2023-06-26T12:00:40;2.40;;;2.30;;
8982;SDS011;20979;59.850;10.660;2023-06-26T12:03:08;2.65;;;2.45;;
8982;SDS011;20979;59.850;10.660;2023-06-26T12:05:36;2.67;;;2.47;;
8982;SDS011;20979;59.850;10.660;2023-06-26T12:08:03;10.27;;;2.50;;
8982;SDS011;20979;59.850;10.660;2023-06-26T12:10:33;2.80;;;2.63;;
8982;SDS011;20979;59.850;10.660;2023-06-26T12:13:00;2.95;;;2.75;;
8982;SDS011;20979;59.850;10.660;2023-06-26T12:15:28;2.75;;;2.55;;
8982;SDS011;20979;59.850;10.660;2023-06-26T12:17:57;3.28;;;2.45;;
8982;SDS011;20979;59.850;10.660;2023-06-26T12:20:25;2.95;;;2.75;;
8982;SDS011;20979;59.850;10.660;2023-06-26T12:22:56;3.10;;;2.90;;
8982;SDS011;20979;59.850;10.660;2023-06-26T12:25:24;2.75;;;2.55;;
8982;SDS011;20979;59.850;10.660;2023-06-26T12:27:51;3.05;;;2.85;;
8982;SDS011;20979;59.850;10.660;2023-06-26T12:30:19;4.10;;;3.03;;
8982;SDS011;20979;59.850;10.660;2023-06-26T12:32:49;3.08;;;2.88;;
8982;SDS011;20979;59.850;10.660;2023-06-26T12:35:18;2.80;;;2.60;;
8982;SDS011;20979;59.850;10.660;2023-06-26T12:37:45;2.97;;;2.78;;
8982;SDS011;20979;59.850;10.660;2023-06-26T12:40:17;3.40;;;3.20;;
8982;SDS011;20979;59.850;10.660;2023-06-26T12:42:50;3.00;;;2.70;;
8982;SDS011;20979;59.850;10.660;2023-06-26T12:45:21;3.03;;;2.70;;
8982;SDS011;20979;59.850;10.660;2023-06-26T12:47:50;3.30;;;3.03;;
8982;SDS011;20979;59.850;10.660;2023-06-26T12:50:19;2.90;;;2.70;;
8982;SDS011;20979;59.850;10.660;2023-06-26T12:52:47;3.10;;;2.80;;
8982;SDS011;20979;59.850;10.660;2023-06-26T12:55:14;3.30;;;3.10;;
8982;SDS011;20979;59.850;10.660;2023-06-26T12:57:42;3.28;;;3.05;;
8982;SDS011;20979;59.850;10.660;2023-06-26T13:02:59;3.05;;;2.85;;
8982;SDS011;20979;59.850;10.660;2023-06-26T13:08:16;5.07;;;3.08;;
8982;SDS011;20979;59.850;10.660;2023-06-26T13:10:44;3.10;;;2.90;;
8982;SDS011;20979;59.850;10.660;2023-06-26T13:13:11;3.63;;;3.33;;
8982;SDS011;20979;59.850;10.660;2023-06-26T13:15:39;3.42;;;3.13;;
8982;SDS011;20979;59.850;10.660;2023-06-26T13:18:06;3.72;;;3.35;;
8982;SDS011;20979;59.850;10.660;2023-06-26T13:20:34;3.70;;;3.40;;
8982;SDS011;20979;59.850;10.660;2023-06-26T13:23:02;3.85;;;3.55;;
8982;SDS011;20979;59.850;10.660;2023-06-26T13:25:30;4.40;;;3.67;;
8982;SDS011;20979;59.850;10.660;2023-06-26T13:28:01;4.00;;;3.60;;
8982;SDS011;20979;59.850;10.660;2023-06-26T13:30:28;3.35;;;3.10;;
8982;SDS011;20979;59.850;10.660;2023-06-26T13:32:56;4.32;;;3.15;;
8982;SDS011;20979;59.850;10.660;2023-06-26T13:35:23;3.58;;;3.30;;
8982;SDS011;20979;59.850;10.660;2023-06-26T13:37:52;3.60;;;3.30;;
8982;SDS011;20979;59.850;10.660;2023-06-26T13:40:20;3.65;;;3.33;;
8982;SDS011;20979;59.850;10.660;2023-06-26T13:42:49;3.60;;;3.30;;
8982;SDS011;20979;59.850;10.660;2023-06-26T13:45:17;3.40;;;3.10;;
8982;SDS011;20979;59.850;10.660;2023-06-26T13:47:44;3.85;;;3.50;;
8982;SDS011;20979;59.850;10.660;2023-06-26T13:50:12;3.90;;;3.60;;
8982;SDS011;20979;59.850;10.660;2023-06-26T13:52:39;3.78;;;3.47;;
8982;SDS011;20979;59.850;10.660;2023-06-26T13:55:07;3.88;;;3.67;;
8982;SDS011;20979;59.850;10.660;2023-06-26T13:57:35;3.40;;;3.20;;
8982;SDS011;20979;59.850;10.660;2023-06-26T14:03:19;3.80;;;3.50;;
8982;SDS011;20979;59.850;10.660;2023-06-26T14:05:47;3.53;;;3.22;;
8982;SDS011;20979;59.850;10.660;2023-06-26T14:08:21;3.67;;;3.38;;
8982;SDS011;20979;59.850;10.660;2023-06-26T14:10:48;3.10;;;2.90;;
8982;SDS011;20979;59.850;10.660;2023-06-26T14:13:15;3.90;;;2.80;;
8982;SDS011;20979;59.850;10.660;2023-06-26T14:15:43;3.25;;;3.00;;
8982;SDS011;20979;59.850;10.660;2023-06-26T14:18:11;3.80;;;2.90;;
8982;SDS011;20979;59.850;10.660;2023-06-26T14:20:42;3.10;;;2.65;;
8982;SDS011;20979;59.850;10.660;2023-06-26T14:23:09;2.70;;;2.50;;
8982;SDS011;20979;59.850;10.660;2023-06-26T14:25:40;2.45;;;2.35;;
8982;SDS011;20979;59.850;10.660;2023-06-26T14:28:07;2.67;;;2.47;;
8982;SDS011;20979;59.850;10.660;2023-06-26T14:30:35;3.10;;;2.30;;
8982;SDS011;20979;59.850;10.660;2023-06-26T14:33:02;2.50;;;2.30;;
8982;SDS011;20979;59.850;10.660;2023-06-26T14:35:33;2.47;;;2.30;;
8982;SDS011;20979;59.850;10.660;2023-06-26T14:38:03;2.38;;;2.28;;
8982;SDS011;20979;59.850;10.660;2023-06-26T14:40:34;2.90;;;2.70;;
8982;SDS011;20979;59.850;10.660;2023-06-26T14:43:01;3.42;;;2.40;;
8982;SDS011;20979;59.850;10.660;2023-06-26T14:45:29;2.50;;;2.22;;
8982;SDS011;20979;59.850;10.660;2023-06-26T14:47:56;2.67;;;2.47;;
8982;SDS011;20979;59.850;10.660;2023-06-26T14:50:24;2.72;;;2.53;;
8982;SDS011;20979;59.850;10.660;2023-06-26T14:52:52;2.65;;;2.33;;
8982;SDS011;20979;59.850;10.660;2023-06-26T14:55:21;2.72;;;2.53;;
8982;SDS011;20979;59.850;10.660;2023-06-26T14:57:48;2.25;;;2.15;;
8982;SDS011;20979;59.850;10.660;2023-06-26T15:00:19;2.72;;;2.53;;
8982;SDS011;20979;59.850;10.660;2023-06-26T15:03:07;3.97;;;2.60;;
8982;SDS011;20979;59.850;10.660;2023-06-26T15:05:38;2.70;;;2.50;;
8982;SDS011;20979;59.850;10.660;2023-06-26T15:08:05;3.10;;;2.80;;
8982;SDS011;20979;59.850;10.660;2023-06-26T15:10:36;2.97;;;2.78;;
8982;SDS011;20979;59.850;10.660;2023-06-26T15:13:04;2.50;;;2.30;;
8982;SDS011;20979;59.850;10.660;2023-06-26T15:15:34;3.13;;;2.83;;
8982;SDS011;20979;59.850;10.660;2023-06-26T15:18:05;3.10;;;2.70;;
8982;SDS011;20979;59.850;10.660;2023-06-26T15:20:33;2.80;;;2.60;;
8982;SDS011;20979;59.850;10.660;2023-06-26T15:23:00;3.08;;;2.78;;
8982;SDS011;20979;59.850;10.660;2023-06-26T15:25:28;3.97;;;2.67;;
8982;SDS011;20979;59.850;10.660;2023-06-26T15:27:58;3.92;;;2.83;;
8982;SDS011;20979;59.850;10.660;2023-06-26T15:33:27;3.58;;;2.10;;
8982;SDS011;20979;59.850;10.660;2023-06-26T15:35:54;8.93;;;3.60;;
8982;SDS011;20979;59.850;10.660;2023-06-26T15:38:24;10.82;;;3.38;;
8982;SDS011;20979;59.850;10.660;2023-06-26T15:40:51;10.38;;;3.53;;
8982;SDS011;20979;59.850;10.660;2023-06-26T15:43:21;4.43;;;2.35;;
8982;SDS011;20979;59.850;10.660;2023-06-26T15:45:48;5.50;;;2.42;;
8982;SDS011;20979;59.850;10.660;2023-06-26T15:48:15;5.85;;;2.28;;
8982;SDS011;20979;59.850;10.660;2023-06-26T15:50:43;4.07;;;2.60;;
8982;SDS011;20979;59.850;10.660;2023-06-26T15:53:10;5.75;;;2.53;;
8982;SDS011;20979;59.850;10.660;2023-06-26T15:55:42;6.00;;;2.20;;
8982;SDS011;20979;59.850;10.660;2023-06-26T15:58:10;4.50;;;2.65;;
8982;SDS011;20979;59.850;10.660;2023-06-26T16:00:38;4.13;;;2.53;;
8982;SDS011;20979;59.850;10.660;2023-06-26T16:03:06;8.77;;;2.90;;
8982;SDS011;20979;59.850;10.660;2023-06-26T16:05:33;5.82;;;2.78;;
8982;SDS011;20979;59.850;10.660;2023-06-26T16:08:01;5.65;;;2.65;;
8982;SDS011;20979;59.850;10.660;2023-06-26T16:10:28;4.50;;;3.22;;
8982;SDS011;20979;59.850;10.660;2023-06-26T16:12:56;4.32;;;3.03;;
8982;SDS011;20979;59.850;10.660;2023-06-26T16:15:23;6.65;;;3.28;;
8982;SDS011;20979;59.850;10.660;2023-06-26T16:17:52;5.70;;;3.45;;
8982;SDS011;20979;59.850;10.660;2023-06-26T16:20:19;5.80;;;3.60;;
8982;SDS011;20979;59.850;10.660;2023-06-26T16:22:47;4.60;;;3.67;;
8982;SDS011;20979;59.850;10.660;2023-06-26T16:25:16;5.30;;;4.13;;
8982;SDS011;20979;59.850;10.660;2023-06-26T16:27:43;7.57;;;4.57;;
8982;SDS011;20979;59.850;10.660;2023-06-26T16:30:11;5.28;;;4.65;;
8982;SDS011;20979;59.850;10.660;2023-06-26T16:32:39;4.57;;;3.90;;
8982;SDS011;20979;59.850;10.660;2023-06-26T16:35:09;4.28;;;3.88;;
8982;SDS011;20979;59.850;10.660;2023-06-26T16:37:36;4.70;;;4.20;;
8982;SDS011;20979;59.850;10.660;2023-06-26T16:40:04;4.93;;;3.95;;
8982;SDS011;20979;59.850;10.660;2023-06-26T16:42:31;4.95;;;4.40;;
8982;SDS011;20979;59.850;10.660;2023-06-26T16:44:59;5.70;;;4.40;;
8982;SDS011;20979;59.850;10.660;2023-06-26T16:47:26;5.35;;;4.85;;
8982;SDS011;20979;59.850;10.660;2023-06-26T16:49:55;6.50;;;4.70;;
8982;SDS011;20979;59.850;10.660;2023-06-26T16:52:24;5.95;;;4.40;;
8982;SDS011;20979;59.850;10.660;2023-06-26T16:54:51;5.45;;;4.30;;
8982;SDS011;20979;59.850;10.660;2023-06-26T16:57:22;4.45;;;4.07;;
8982;SDS011;20979;59.850;10.660;2023-06-26T16:59:55;4.93;;;4.40;;
8982;SDS011;20979;59.850;10.660;2023-06-26T17:02:22;7.55;;;4.55;;
8982;SDS011;20979;59.850;10.660;2023-06-26T17:04:49;5.22;;;4.75;;
8982;SDS011;20979;59.850;10.660;2023-06-26T17:07:17;4.95;;;4.55;;
8982;SDS011;20979;59.850;10.660;2023-06-26T17:09:45;6.50;;;4.13;;
8982;SDS011;20979;59.850;10.660;2023-06-26T17:12:13;2.88;;;2.67;;
8982;SDS011;20979;59.850;10.660;2023-06-26T17:14:40;3.33;;;3.03;;
8982;SDS011;20979;59.850;10.660;2023-06-26T17:17:08;2.75;;;2.55;;
8982;SDS011;20979;59.850;10.660;2023-06-26T17:19:35;2.60;;;2.38;;